Heydar Aliyev — 9HFS7 — position and weather

sailwx.info

Track history (hours):
 
Tides and Currents Weather Stations Pressure Air Temp Water Temp Dewpoint Dewpoint Depression Visibility Wind Speed Wind Dir Waves Ship Positions

Heydar Aliyev

Last reported at 2017-Oct-06 13:46 UTC. Time now 2017-Oct-20 10:48 UTC.
Position N 35°51' E 014°51'.
Warning: this ship's position is 13 days out of date.

Length 274 m; draft 17 m.

Type: Tanker. MMSI: 215213000.

Date/timePositionNaut miles runAvg speedWind from/ knotsBaromVisibWave heightAir tempDewpointWater temp
2017-Oct-06 13:46N 35°51' E 014°51'312.0
2017-Oct-06 13:30N 35°52' E 014°47'2 3.0
2017-Oct-06 12:57N 35°52' E 014°45'0 0.1
2017-Oct-06 12:30N 35°52' E 014°45'0 0.0
2017-Oct-06 11:54N 35°52' E 014°45'0 0.1
2017-Oct-06 11:30N 35°52' E 014°45'0 0.0
2017-Oct-06 11:00N 35°52' E 014°45'0 0.0
2017-Oct-06 10:30N 35°52' E 014°45'0 0.0
2017-Oct-06 10:00N 35°52' E 014°45'0 0.0
2017-Oct-06 09:30N 35°52' E 014°45'0 0.0
2017-Oct-06 09:00N 35°52' E 014°45'0 0.0
2017-Oct-06 08:12N 35°52' E 014°45'0 0.0
2017-Oct-06 07:57N 35°52' E 014°45'0 0.0
2017-Oct-06 07:30N 35°52' E 014°45'0 0.0
2017-Oct-06 06:57N 35°52' E 014°45'0 0.0
2017-Oct-06 06:30N 35°52' E 014°45'0 0.1
2017-Oct-06 05:57N 35°52' E 014°45'0 0.1
2017-Oct-06 05:30N 35°52' E 014°45'0 0.0
2017-Oct-06 05:00N 35°52' E 014°45'0 0.1
2017-Oct-06 04:30N 35°52' E 014°45'0 0.0
2017-Oct-06 03:24N 35°52' E 014°45'0 0.0
2017-Oct-06 01:36N 35°52' E 014°45'0 0.1
2017-Oct-06 01:20N 35°52' E 014°45'0 0.1
2017-Oct-06 01:00N 35°52' E 014°45'1 1.4
2017-Oct-06 00:30N 35°52' E 014°45'3 5.8
2017-Oct-05 23:58N 35°50' E 014°49'2 0.1
2017-Oct-04 18:28N 35°50' E 014°51'0 0.0
2017-Oct-04 17:58N 35°50' E 014°51'0 0.0
2017-Oct-04 02:14N 35°50' E 014°51'0 1.1
2017-Oct-04 01:59N 35°50' E 014°51'3 1.5
2017-Oct-03 23:48N 35°53' E 014°52'1 1.4
2017-Oct-03 23:06N 35°54' E 014°52'0 2.2
2017-Oct-03 22:57N 35°54' E 014°52'1 1.4
2017-Oct-03 22:30N 35°55' E 014°52'1 1.3
2017-Oct-03 22:00N 35°55' E 014°52'1 1.5
2017-Oct-03 21:30N 35°56' E 014°51'1 1.6
2017-Oct-03 21:00N 35°57' E 014°51'1 1.9
2017-Oct-03 20:24N 35°58' E 014°51'0 1.2
2017-Oct-03 20:00N 35°58' E 014°51'0 0.9
2017-Oct-03 19:30N 35°59' E 014°51'0 0.1
2017-Oct-03 18:51N 35°59' E 014°51'0 0.1
2017-Oct-03 18:27N 35°59' E 014°51'0 0.1
2017-Oct-03 18:00N 35°59' E 014°51'0 0.2
2017-Oct-03 16:18N 35°59' E 014°51'0 0.2
2017-Oct-03 16:00N 35°59' E 014°51'0 0.1
2017-Oct-03 15:30N 35°59' E 014°51'0 0.1
2017-Oct-03 15:00N 35°59' E 014°51'0 0.1
2017-Oct-03 14:00N 35°59' E 014°51'0 0.0
2017-Oct-03 13:27N 35°59' E 014°51'0 0.0
2017-Oct-03 13:00N 35°59' E 014°51'0 0.1
2017-Oct-03 12:15N 35°59' E 014°51'0 0.3
2017-Oct-03 11:57N 35°59' E 014°51'  
Track history (hours):
 
Tides and Currents Weather Stations Pressure Air Temp Water Temp Dewpoint Dewpoint Depression Visibility Wind Speed Wind Dir Waves Ship Positions

Heydar Aliyev

Last reported at 2017-Oct-06 13:46 UTC. Time now 2017-Oct-20 10:48 UTC.
Position N 35°51' E 014°51'.
Warning: this ship's position is 13 days out of date.

Length 274 m; draft 17 m.

Type: Tanker. MMSI: 215213000.

Date/timePositionNaut miles runAvg speedWind from/ knotsBaromVisibWave heightAir tempDewpointWater temp
2017-Oct-06 13:46N 35°51' E 014°51'312.0
2017-Oct-06 13:30N 35°52' E 014°47'2 3.0
2017-Oct-06 12:57N 35°52' E 014°45'0 0.1
2017-Oct-06 12:30N 35°52' E 014°45'0 0.0
2017-Oct-06 11:54N 35°52' E 014°45'0 0.1
2017-Oct-06 11:30N 35°52' E 014°45'0 0.0
2017-Oct-06 11:00N 35°52' E 014°45'0 0.0
2017-Oct-06 10:30N 35°52' E 014°45'0 0.0
2017-Oct-06 10:00N 35°52' E 014°45'0 0.0
2017-Oct-06 09:30N 35°52' E 014°45'0 0.0
2017-Oct-06 09:00N 35°52' E 014°45'0 0.0
2017-Oct-06 08:12N 35°52' E 014°45'0 0.0
2017-Oct-06 07:57N 35°52' E 014°45'0 0.0
2017-Oct-06 07:30N 35°52' E 014°45'0 0.0
2017-Oct-06 06:57N 35°52' E 014°45'0 0.0
2017-Oct-06 06:30N 35°52' E 014°45'0 0.1
2017-Oct-06 05:57N 35°52' E 014°45'0 0.1
2017-Oct-06 05:30N 35°52' E 014°45'0 0.0
2017-Oct-06 05:00N 35°52' E 014°45'0 0.1
2017-Oct-06 04:30N 35°52' E 014°45'0 0.0
2017-Oct-06 03:24N 35°52' E 014°45'0 0.0
2017-Oct-06 01:36N 35°52' E 014°45'0 0.1
2017-Oct-06 01:20N 35°52' E 014°45'0 0.1
2017-Oct-06 01:00N 35°52' E 014°45'1 1.4
2017-Oct-06 00:30N 35°52' E 014°45'3 5.8
2017-Oct-05 23:58N 35°50' E 014°49'2 0.1
2017-Oct-04 18:28N 35°50' E 014°51'0 0.0
2017-Oct-04 17:58N 35°50' E 014°51'0 0.0
2017-Oct-04 02:14N 35°50' E 014°51'0 1.1
2017-Oct-04 01:59N 35°50' E 014°51'3 1.5
2017-Oct-03 23:48N 35°53' E 014°52'1 1.4
2017-Oct-03 23:06N 35°54' E 014°52'0 2.2
2017-Oct-03 22:57N 35°54' E 014°52'1 1.4
2017-Oct-03 22:30N 35°55' E 014°52'1 1.3
2017-Oct-03 22:00N 35°55' E 014°52'1 1.5
2017-Oct-03 21:30N 35°56' E 014°51'1 1.6
2017-Oct-03 21:00N 35°57' E 014°51'1 1.9
2017-Oct-03 20:24N 35°58' E 014°51'0 1.2
2017-Oct-03 20:00N 35°58' E 014°51'0 0.9
2017-Oct-03 19:30N 35°59' E 014°51'0 0.1
2017-Oct-03 18:51N 35°59' E 014°51'0 0.1
2017-Oct-03 18:27N 35°59' E 014°51'0 0.1
2017-Oct-03 18:00N 35°59' E 014°51'0 0.2
2017-Oct-03 16:18N 35°59' E 014°51'0 0.2
2017-Oct-03 16:00N 35°59' E 014°51'0 0.1
2017-Oct-03 15:30N 35°59' E 014°51'0 0.1
2017-Oct-03 15:00N 35°59' E 014°51'0 0.1
2017-Oct-03 14:00N 35°59' E 014°51'0 0.0
2017-Oct-03 13:27N 35°59' E 014°51'0 0.0
2017-Oct-03 13:00N 35°59' E 014°51'0 0.1
2017-Oct-03 12:15N 35°59' E 014°51'0 0.3
2017-Oct-03 11:57N 35°59' E 014°51'  

Dump ship's entire track history